sensor_id;sensor_type;location;lat;lon;timestamp;pressure;altitude;pressure_sealevel;temperature
24278;BMP280;12394;42.692;23.314;2023-12-22T00:01:06;93521.94;;;2.51
24278;BMP280;12394;42.692;23.314;2023-12-22T00:03:32;93514.94;;;2.38
24278;BMP280;12394;42.692;23.314;2023-12-22T00:05:57;93502.03;;;2.27
24278;BMP280;12394;42.692;23.314;2023-12-22T00:08:23;93499.09;;;2.39
24278;BMP280;12394;42.692;23.314;2023-12-22T00:10:51;93484.72;;;2.31
24278;BMP280;12394;42.692;23.314;2023-12-22T00:13:17;93500.22;;;2.45
24278;BMP280;12394;42.692;23.314;2023-12-22T00:15:42;93495.38;;;2.37
24278;BMP280;12394;42.692;23.314;2023-12-22T00:18:08;93478.44;;;2.18
24278;BMP280;12394;42.692;23.314;2023-12-22T00:20:34;93471.09;;;2.27
24278;BMP280;12394;42.692;23.314;2023-12-22T00:22:59;93487.28;;;2.38
24278;BMP280;12394;42.692;23.314;2023-12-22T00:25:25;93480.66;;;2.44
24278;BMP280;12394;42.692;23.314;2023-12-22T00:27:51;93469.97;;;2.32
24278;BMP280;12394;42.692;23.314;2023-12-22T00:30:16;93468.84;;;2.29
24278;BMP280;12394;42.692;23.314;2023-12-22T00:32:42;93464.44;;;2.26
24278;BMP280;12394;42.692;23.314;2023-12-22T00:35:08;93464.44;;;2.30
24278;BMP280;12394;42.692;23.314;2023-12-22T00:37:33;93460.03;;;2.41
24278;BMP280;12394;42.692;23.314;2023-12-22T00:39:59;93457.06;;;2.42
24278;BMP280;12394;42.692;23.314;2023-12-22T00:42:24;93446.72;;;2.46
24278;BMP280;12394;42.692;23.314;2023-12-22T00:44:51;93456.69;;;2.47
24278;BMP280;12394;42.692;23.314;2023-12-22T00:47:17;93454.13;;;2.44
24278;BMP280;12394;42.692;23.314;2023-12-22T00:49:42;93457.81;;;2.43
24278;BMP280;12394;42.692;23.314;2023-12-22T00:52:08;93435.69;;;2.52
24278;BMP280;12394;42.692;23.314;2023-12-22T00:54:33;93453.00;;;2.55
24278;BMP280;12394;42.692;23.314;2023-12-22T00:56:59;93442.31;;;2.53
24278;BMP280;12394;42.692;23.314;2023-12-22T00:59:24;93441.59;;;2.49
24278;BMP280;12394;42.692;23.314;2023-12-22T01:01:50;93420.56;;;2.47
24278;BMP280;12394;42.692;23.314;2023-12-22T01:04:15;93423.16;;;2.44
24278;BMP280;12394;42.692;23.314;2023-12-22T01:06:41;93431.25;;;2.56
24278;BMP280;12394;42.692;23.314;2023-12-22T01:09:06;93433.44;;;2.61
24278;BMP280;12394;42.692;23.314;2023-12-22T01:11:32;93455.94;;;2.64
24278;BMP280;12394;42.692;23.314;2023-12-22T01:13:58;93444.47;;;2.73
24278;BMP280;12394;42.692;23.314;2023-12-22T01:16:23;93448.16;;;2.79
24278;BMP280;12394;42.692;23.314;2023-12-22T01:18:49;93433.41;;;2.90
24278;BMP280;12394;42.692;23.314;2023-12-22T01:21:16;93442.22;;;2.96
24278;BMP280;12394;42.692;23.314;2023-12-22T01:23:42;93437.81;;;2.89
24278;BMP280;12394;42.692;23.314;2023-12-22T01:26:07;93425.66;;;2.90
24278;BMP280;12394;42.692;23.314;2023-12-22T01:28:36;93434.84;;;2.98
24278;BMP280;12394;42.692;23.314;2023-12-22T01:31:02;93411.22;;;2.96
24278;BMP280;12394;42.692;23.314;2023-12-22T01:33:28;93416.72;;;3.05
24278;BMP280;12394;42.692;23.314;2023-12-22T01:35:54;93413.75;;;3.13
24278;BMP280;12394;42.692;23.314;2023-12-22T01:38:20;93411.09;;;3.35
24278;BMP280;12394;42.692;23.314;2023-12-22T01:40:45;93412.97;;;3.24
24278;BMP280;12394;42.692;23.314;2023-12-22T01:43:11;93408.88;;;3.33
24278;BMP280;12394;42.692;23.314;2023-12-22T01:45:38;93402.22;;;3.36
24278;BMP280;12394;42.692;23.314;2023-12-22T01:48:04;93393.41;;;3.19
24278;BMP280;12394;42.692;23.314;2023-12-22T01:50:30;93392.59;;;3.36
24278;BMP280;12394;42.692;23.314;2023-12-22T01:52:56;93391.56;;;3.23
24278;BMP280;12394;42.692;23.314;2023-12-22T01:55:22;93405.22;;;3.20
24278;BMP280;12394;42.692;23.314;2023-12-22T01:57:48;93381.25;;;3.20
24278;BMP280;12394;42.692;23.314;2023-12-22T02:00:14;93384.19;;;3.18
24278;BMP280;12394;42.692;23.314;2023-12-22T02:02:41;93381.53;;;3.39
24278;BMP280;12394;42.692;23.314;2023-12-22T02:05:09;93392.28;;;3.31
24278;BMP280;12394;42.692;23.314;2023-12-22T02:07:38;93369.69;;;3.42
24278;BMP280;12394;42.692;23.314;2023-12-22T02:10:07;93388.63;;;3.21
24278;BMP280;12394;42.692;23.314;2023-12-22T02:12:34;93382.03;;;3.13
24278;BMP280;12394;42.692;23.314;2023-12-22T02:14:59;93374.47;;;3.43
24278;BMP280;12394;42.692;23.314;2023-12-22T02:17:32;93378.22;;;3.35
24278;BMP280;12394;42.692;23.314;2023-12-22T02:20:00;93364.59;;;3.28
24278;BMP280;12394;42.692;23.314;2023-12-22T02:22:28;93368.31;;;3.23
24278;BMP280;12394;42.692;23.314;2023-12-22T02:24:54;93378.25;;;3.28
24278;BMP280;12394;42.692;23.314;2023-12-22T02:27:30;93380.47;;;3.23
24278;BMP280;12394;42.692;23.314;2023-12-22T02:30:07;93359.44;;;3.24
24278;BMP280;12394;42.692;23.314;2023-12-22T02:32:55;93354.31;;;3.13
24278;BMP280;12394;42.692;23.314;2023-12-22T02:35:25;93376.44;;;3.18
24278;BMP280;12394;42.692;23.314;2023-12-22T02:37:52;93364.25;;;3.19
24278;BMP280;12394;42.692;23.314;2023-12-22T02:40:19;93370.16;;;3.23
24278;BMP280;12394;42.692;23.314;2023-12-22T02:42:45;93373.41;;;3.37
24278;BMP280;12394;42.692;23.314;2023-12-22T02:45:16;93345.47;;;3.14
24278;BMP280;12394;42.692;23.314;2023-12-22T02:47:43;93376.06;;;3.23
24278;BMP280;12394;42.692;23.314;2023-12-22T02:50:09;93365.31;;;3.28
24278;BMP280;12394;42.692;23.314;2023-12-22T02:52:35;93366.03;;;3.32
24278;BMP280;12394;42.692;23.314;2023-12-22T02:55:01;93353.78;;;3.47
24278;BMP280;12394;42.692;23.314;2023-12-22T02:57:27;93340.16;;;3.39
24278;BMP280;12394;42.692;23.314;2023-12-22T02:59:52;93337.69;;;3.18
24278;BMP280;12394;42.692;23.314;2023-12-22T03:02:18;93344.72;;;3.18
24278;BMP280;12394;42.692;23.314;2023-12-22T03:04:43;93335.06;;;3.29
24278;BMP280;12394;42.692;23.314;2023-12-22T03:07:11;93352.09;;;3.19
24278;BMP280;12394;42.692;23.314;2023-12-22T03:09:37;93348.03;;;3.18
24278;BMP280;12394;42.692;23.314;2023-12-22T03:12:02;93335.91;;;3.08
24278;BMP280;12394;42.692;23.314;2023-12-22T03:14:31;93330.00;;;3.11
24278;BMP280;12394;42.692;23.314;2023-12-22T03:17:04;93345.84;;;3.13
24278;BMP280;12394;42.692;23.314;2023-12-22T03:19:30;93337.69;;;3.18
24278;BMP280;12394;42.692;23.314;2023-12-22T03:21:56;93346.94;;;3.16
24278;BMP280;12394;42.692;23.314;2023-12-22T03:24:31;93352.09;;;3.19
24278;BMP280;12394;42.692;23.314;2023-12-22T03:26:56;93343.94;;;3.24
24278;BMP280;12394;42.692;23.314;2023-12-22T03:29:22;93339.56;;;3.14
24278;BMP280;12394;42.692;23.314;2023-12-22T03:31:48;93338.88;;;3.06
24278;BMP280;12394;42.692;23.314;2023-12-22T03:34:13;93348.03;;;3.18
24278;BMP280;12394;42.692;23.314;2023-12-22T03:36:39;93346.22;;;3.11
24278;BMP280;12394;42.692;23.314;2023-12-22T03:39:05;93348.84;;;3.08
24278;BMP280;12394;42.692;23.314;2023-12-22T03:41:31;93325.25;;;2.99
24278;BMP280;12394;42.692;23.314;2023-12-22T03:43:56;93341.81;;;3.12
24278;BMP280;12394;42.692;23.314;2023-12-22T03:46:22;93339.53;;;3.21
24278;BMP280;12394;42.692;23.314;2023-12-22T03:48:48;93333.91;;;3.37
24278;BMP280;12394;42.692;23.314;2023-12-22T03:51:14;93340.22;;;3.29
24278;BMP280;12394;42.692;23.314;2023-12-22T03:53:40;93329.81;;;3.43
24278;BMP280;12394;42.692;23.314;2023-12-22T03:56:07;93323.97;;;3.28
24278;BMP280;12394;42.692;23.314;2023-12-22T03:58:34;93342.44;;;3.30
24278;BMP280;12394;42.692;23.314;2023-12-22T04:01:00;93343.09;;;3.41
24278;BMP280;12394;42.692;23.314;2023-12-22T04:03:25;93344.19;;;3.47
24278;BMP280;12394;42.692;23.314;2023-12-22T04:05:52;93342.03;;;3.39
24278;BMP280;12394;42.692;23.314;2023-12-22T04:08:17;93343.09;;;3.41
24278;BMP280;12394;42.692;23.314;2023-12-22T04:10:43;93328.81;;;3.26
24278;BMP280;12394;42.692;23.314;2023-12-22T04:13:09;93342.03;;;3.39
24278;BMP280;12394;42.692;23.314;2023-12-22T04:15:35;93344.22;;;3.37
24278;BMP280;12394;42.692;23.314;2023-12-22T04:18:00;93340.69;;;3.72
24278;BMP280;12394;42.692;23.314;2023-12-22T04:20:26;93342.19;;;3.69
24278;BMP280;12394;42.692;23.314;2023-12-22T04:22:51;93347.44;;;3.55
24278;BMP280;12394;42.692;23.314;2023-12-22T04:25:17;93337.13;;;3.51
24278;BMP280;12394;42.692;23.314;2023-12-22T04:27:43;93332.69;;;3.52
24278;BMP280;12394;42.692;23.314;2023-12-22T04:30:08;93326.78;;;3.51
24278;BMP280;12394;42.692;23.314;2023-12-22T04:32:34;93327.53;;;3.52
24278;BMP280;12394;42.692;23.314;2023-12-22T04:35:00;93334.81;;;3.68
24278;BMP280;12394;42.692;23.314;2023-12-22T04:37:25;93320.81;;;3.62
24278;BMP280;12394;42.692;23.314;2023-12-22T04:39:51;93320.47;;;3.56
24278;BMP280;12394;42.692;23.314;2023-12-22T04:42:16;93311.59;;;3.61
24278;BMP280;12394;42.692;23.314;2023-12-22T04:44:42;93318.56;;;3.67
24278;BMP280;12394;42.692;23.314;2023-12-22T04:47:07;93314.47;;;3.70
24278;BMP280;12394;42.692;23.314;2023-12-22T04:49:33;93305.25;;;3.69
24278;BMP280;12394;42.692;23.314;2023-12-22T04:51:58;93311.88;;;3.70
24278;BMP280;12394;42.692;23.314;2023-12-22T04:54:24;93301.88;;;3.75
24278;BMP280;12394;42.692;23.314;2023-12-22T04:56:49;93315.16;;;3.77
24278;BMP280;12394;42.692;23.314;2023-12-22T04:59:14;93312.22;;;3.75
24278;BMP280;12394;42.692;23.314;2023-12-22T05:01:40;93302.66;;;3.69
24278;BMP280;12394;42.692;23.314;2023-12-22T05:04:05;93307.50;;;3.67
24278;BMP280;12394;42.692;23.314;2023-12-22T05:06:31;93297.47;;;3.72
24278;BMP280;12394;42.692;23.314;2023-12-22T05:08:56;93287.88;;;3.69
24278;BMP280;12394;42.692;23.314;2023-12-22T05:11:22;93298.63;;;3.68
24278;BMP280;12394;42.692;23.314;2023-12-22T05:13:48;93281.66;;;3.63
24278;BMP280;12394;42.692;23.314;2023-12-22T05:16:14;93276.09;;;3.65
24278;BMP280;12394;42.692;23.314;2023-12-22T05:18:39;93283.00;;;3.78
24278;BMP280;12394;42.692;23.314;2023-12-22T05:21:05;93302.22;;;3.77
24278;BMP280;12394;42.692;23.314;2023-12-22T05:23:30;93286.28;;;3.86
24278;BMP280;12394;42.692;23.314;2023-12-22T05:25:56;93266.50;;;3.65
24278;BMP280;12394;42.692;23.314;2023-12-22T05:28:21;93299.97;;;3.83
24278;BMP280;12394;42.692;23.314;2023-12-22T05:30:47;93294.88;;;3.72
24278;BMP280;12394;42.692;23.314;2023-12-22T05:33:12;93305.94;;;3.76
24278;BMP280;12394;42.692;23.314;2023-12-22T05:35:38;93299.22;;;3.86
24278;BMP280;12394;42.692;23.314;2023-12-22T05:38:03;93289.28;;;3.77
24278;BMP280;12394;42.692;23.314;2023-12-22T05:40:32;93283.06;;;3.71
24278;BMP280;12394;42.692;23.314;2023-12-22T05:42:57;93297.25;;;3.97
24278;BMP280;12394;42.692;23.314;2023-12-22T05:45:23;93270.81;;;3.79
24278;BMP280;12394;42.692;23.314;2023-12-22T05:47:50;93304.38;;;3.86
24278;BMP280;12394;42.692;23.314;2023-12-22T05:50:16;93294.03;;;3.86
24278;BMP280;12394;42.692;23.314;2023-12-22T05:52:42;93294.78;;;3.83
24278;BMP280;12394;42.692;23.314;2023-12-22T05:55:09;93294.75;;;3.86
24278;BMP280;12394;42.692;23.314;2023-12-22T05:57:34;93298.47;;;3.85
24278;BMP280;12394;42.692;23.314;2023-12-22T06:00:00;93297.06;;;3.74
24278;BMP280;12394;42.692;23.314;2023-12-22T06:02:26;93282.31;;;3.74
24278;BMP280;12394;42.692;23.314;2023-12-22T06:04:51;93287.09;;;3.76
24278;BMP280;12394;42.692;23.314;2023-12-22T06:07:16;93280.88;;;3.70
24278;BMP280;12394;42.692;23.314;2023-12-22T06:09:42;93296.66;;;3.79
24278;BMP280;12394;42.692;23.314;2023-12-22T06:12:07;93301.47;;;3.80
24278;BMP280;12394;42.692;23.314;2023-12-22T06:14:33;93288.50;;;3.84
24278;BMP280;12394;42.692;23.314;2023-12-22T06:17:00;93290.34;;;3.83
24278;BMP280;12394;42.692;23.314;2023-12-22T06:19:25;93289.91;;;3.92
24278;BMP280;12394;42.692;23.314;2023-12-22T06:21:53;93299.19;;;3.89
24278;BMP280;12394;42.692;23.314;2023-12-22T06:24:19;93306.53;;;3.91
24278;BMP280;12394;42.692;23.314;2023-12-22T06:26:45;93292.56;;;3.85
24278;BMP280;12394;42.692;23.314;2023-12-22T06:29:10;93297.63;;;3.95
24278;BMP280;12394;42.692;23.314;2023-12-22T06:31:35;93312.72;;;4.04
24278;BMP280;12394;42.692;23.314;2023-12-22T06:34:01;93308.94;;;4.12
24278;BMP280;12394;42.692;23.314;2023-12-22T06:36:28;93318.88;;;4.17
24278;BMP280;12394;42.692;23.314;2023-12-22T06:38:55;93314.53;;;4.07
24278;BMP280;12394;42.692;23.314;2023-12-22T06:41:25;93311.59;;;4.05
24278;BMP280;12394;42.692;23.314;2023-12-22T06:43:51;93297.63;;;3.99
24278;BMP280;12394;42.692;23.314;2023-12-22T06:46:17;93316.34;;;4.10
24278;BMP280;12394;42.692;23.314;2023-12-22T06:48:44;93314.03;;;4.19
24278;BMP280;12394;42.692;23.314;2023-12-22T06:51:27;93315.47;;;4.24
24278;BMP280;12394;42.692;23.314;2023-12-22T06:53:53;93314.00;;;4.23
24278;BMP280;12394;42.692;23.314;2023-12-22T06:56:20;93314.56;;;4.41
24278;BMP280;12394;42.692;23.314;2023-12-22T06:58:47;93320.91;;;4.36
24278;BMP280;12394;42.692;23.314;2023-12-22T07:01:20;93311.31;;;4.33
24278;BMP280;12394;42.692;23.314;2023-12-22T07:03:48;93311.59;;;4.42
24278;BMP280;12394;42.692;23.314;2023-12-22T07:06:19;93328.88;;;4.53
24278;BMP280;12394;42.692;23.314;2023-12-22T07:11:51;93316.72;;;4.50
24278;BMP280;12394;42.692;23.314;2023-12-22T07:14:20;93329.59;;;4.57
24278;BMP280;12394;42.692;23.314;2023-12-22T07:16:45;93323.56;;;4.67
24278;BMP280;12394;42.692;23.314;2023-12-22T07:19:11;93331.59;;;4.76
24278;BMP280;12394;42.692;23.314;2023-12-22T07:21:40;93340.91;;;4.70
24278;BMP280;12394;42.692;23.314;2023-12-22T07:24:06;93330.22;;;4.68
24278;BMP280;12394;42.692;23.314;2023-12-22T07:26:32;93332.53;;;4.59
24278;BMP280;12394;42.692;23.314;2023-12-22T07:28:58;93334.25;;;4.69
24278;BMP280;12394;42.692;23.314;2023-12-22T07:31:24;93337.88;;;4.75
24278;BMP280;12394;42.692;23.314;2023-12-22T07:33:49;93340.84;;;4.77
24278;BMP280;12394;42.692;23.314;2023-12-22T07:36:15;93332.16;;;4.90
24278;BMP280;12394;42.692;23.314;2023-12-22T07:38:41;93343.06;;;5.05
24278;BMP280;12394;42.692;23.314;2023-12-22T07:41:06;93345.25;;;5.10
24278;BMP280;12394;42.692;23.314;2023-12-22T07:43:32;93333.41;;;5.09
24278;BMP280;12394;42.692;23.314;2023-12-22T07:45:58;93343.13;;;5.02
24278;BMP280;12394;42.692;23.314;2023-12-22T07:48:23;93338.69;;;5.02
24278;BMP280;12394;42.692;23.314;2023-12-22T07:50:51;93353.13;;;5.03
24278;BMP280;12394;42.692;23.314;2023-12-22T07:53:17;93353.75;;;5.11
24278;BMP280;12394;42.692;23.314;2023-12-22T07:55:43;93365.25;;;5.10
24278;BMP280;12394;42.692;23.314;2023-12-22T07:58:09;93357.94;;;5.01
24278;BMP280;12394;42.692;23.314;2023-12-22T08:00:35;93364.34;;;5.23
24278;BMP280;12394;42.692;23.314;2023-12-22T08:03:01;93378.22;;;5.36
24278;BMP280;12394;42.692;23.314;2023-12-22T08:05:27;93376.38;;;5.37
24278;BMP280;12394;42.692;23.314;2023-12-22T08:07:52;93385.28;;;5.36
24278;BMP280;12394;42.692;23.314;2023-12-22T08:10:18;93382.63;;;5.13
24278;BMP280;12394;42.692;23.314;2023-12-22T08:12:44;93397.28;;;5.26
24278;BMP280;12394;42.692;23.314;2023-12-22T08:15:10;93385.84;;;5.20
24278;BMP280;12394;42.692;23.314;2023-12-22T08:17:36;93397.81;;;5.11
24278;BMP280;12394;42.692;23.314;2023-12-22T08:20:03;93381.22;;;5.05
24278;BMP280;12394;42.692;23.314;2023-12-22T08:22:29;93399.25;;;5.15
24278;BMP280;12394;42.692;23.314;2023-12-22T08:24:54;93402.16;;;5.21
24278;BMP280;12394;42.692;23.314;2023-12-22T08:27:20;93400.44;;;5.37
24278;BMP280;12394;42.692;23.314;2023-12-22T08:29:45;93400.13;;;5.32
24278;BMP280;12394;42.692;23.314;2023-12-22T08:32:11;93404.53;;;5.38
24278;BMP280;12394;42.692;23.314;2023-12-22T08:34:36;93395.00;;;5.28
24278;BMP280;12394;42.692;23.314;2023-12-22T08:37:02;93397.53;;;5.35
24278;BMP280;12394;42.692;23.314;2023-12-22T08:39:27;93389.13;;;5.24
24278;BMP280;12394;42.692;23.314;2023-12-22T08:41:53;93401.31;;;5.27
24278;BMP280;12394;42.692;23.314;2023-12-22T08:44:19;93404.25;;;5.29
24278;BMP280;12394;42.692;23.314;2023-12-22T08:46:44;93392.41;;;5.28
24278;BMP280;12394;42.692;23.314;2023-12-22T08:49:10;93387.97;;;5.29
24278;BMP280;12394;42.692;23.314;2023-12-22T08:51:36;93407.06;;;5.42
24278;BMP280;12394;42.692;23.314;2023-12-22T08:54:02;93399.47;;;5.58
24278;BMP280;12394;42.692;23.314;2023-12-22T08:56:27;93396.25;;;5.47
24278;BMP280;12394;42.692;23.314;2023-12-22T08:58:54;93390.03;;;5.68
24278;BMP280;12394;42.692;23.314;2023-12-22T09:01:21;93394.91;;;5.66
24278;BMP280;12394;42.692;23.314;2023-12-22T09:03:47;93411.66;;;5.88
24278;BMP280;12394;42.692;23.314;2023-12-22T09:06:21;93421.22;;;5.95
24278;BMP280;12394;42.692;23.314;2023-12-22T09:08:47;93421.31;;;5.88
24278;BMP280;12394;42.692;23.314;2023-12-22T09:11:15;93424.63;;;5.88
24278;BMP280;12394;42.692;23.314;2023-12-22T09:13:41;93433.47;;;5.94
24278;BMP280;12394;42.692;23.314;2023-12-22T09:16:08;93422.03;;;5.88
24278;BMP280;12394;42.692;23.314;2023-12-22T09:18:34;93424.88;;;5.97
24278;BMP280;12394;42.692;23.314;2023-12-22T09:21:00;93432.84;;;6.10
24278;BMP280;12394;42.692;23.314;2023-12-22T09:23:26;93416.72;;;5.99
24278;BMP280;12394;42.692;23.314;2023-12-22T09:25:52;93426.59;;;6.07
24278;BMP280;12394;42.692;23.314;2023-12-22T09:28:17;93421.09;;;6.02
24278;BMP280;12394;42.692;23.314;2023-12-22T09:30:43;93406.84;;;5.87
24278;BMP280;12394;42.692;23.314;2023-12-22T09:33:11;93417.44;;;5.99
24278;BMP280;12394;42.692;23.314;2023-12-22T09:35:37;93421.03;;;6.05
24278;BMP280;12394;42.692;23.314;2023-12-22T09:38:07;93419.38;;;6.18
24278;BMP280;12394;42.692;23.314;2023-12-22T09:40:33;93415.78;;;6.36
24278;BMP280;12394;42.692;23.314;2023-12-22T09:43:00;93413.44;;;6.64
24278;BMP280;12394;42.692;23.314;2023-12-22T09:45:27;93425.88;;;6.77
24278;BMP280;12394;42.692;23.314;2023-12-22T09:47:56;93405.94;;;6.47
24278;BMP280;12394;42.692;23.314;2023-12-22T09:50:22;93414.13;;;6.45
24278;BMP280;12394;42.692;23.314;2023-12-22T09:52:48;93411.47;;;6.49
24278;BMP280;12394;42.692;23.314;2023-12-22T09:55:14;93420.28;;;6.55
24278;BMP280;12394;42.692;23.314;2023-12-22T09:57:40;93415.03;;;6.58
24278;BMP280;12394;42.692;23.314;2023-12-22T10:00:10;93405.34;;;6.59
24278;BMP280;12394;42.692;23.314;2023-12-22T10:02:37;93410.44;;;6.66
24278;BMP280;12394;42.692;23.314;2023-12-22T10:05:03;93389.00;;;6.62
24278;BMP280;12394;42.692;23.314;2023-12-22T10:07:30;93387.88;;;6.83
24278;BMP280;12394;42.692;23.314;2023-12-22T10:09:57;93388.31;;;6.78
24278;BMP280;12394;42.692;23.314;2023-12-22T10:12:23;93386.41;;;6.82
24278;BMP280;12394;42.692;23.314;2023-12-22T10:14:49;93409.88;;;6.98
24278;BMP280;12394;42.692;23.314;2023-12-22T10:17:15;93381.69;;;6.96
24278;BMP280;12394;42.692;23.314;2023-12-22T10:19:42;93363.81;;;6.98
24278;BMP280;12394;42.692;23.314;2023-12-22T10:22:07;93370.69;;;7.08
24278;BMP280;12394;42.692;23.314;2023-12-22T10:24:44;93376.41;;;7.20
24278;BMP280;12394;42.692;23.314;2023-12-22T10:27:13;93356.38;;;7.36
24278;BMP280;12394;42.692;23.314;2023-12-22T10:29:39;93341.72;;;7.62
24278;BMP280;12394;42.692;23.314;2023-12-22T10:32:06;93345.50;;;8.55
24278;BMP280;12394;42.692;23.314;2023-12-22T10:34:32;93355.84;;;9.92
24278;BMP280;12394;42.692;23.314;2023-12-22T10:37:01;93358.06;;;10.53
24278;BMP280;12394;42.692;23.314;2023-12-22T10:39:30;93348.47;;;10.72
24278;BMP280;12394;42.692;23.314;2023-12-22T10:41:57;93344.63;;;10.63
24278;BMP280;12394;42.692;23.314;2023-12-22T10:44:27;93335.50;;;10.46
24278;BMP280;12394;42.692;23.314;2023-12-22T10:46:52;93337.84;;;10.88
24278;BMP280;12394;42.692;23.314;2023-12-22T10:49:20;93328.31;;;11.55
24278;BMP280;12394;42.692;23.314;2023-12-22T10:51:46;93311.28;;;12.00
24278;BMP280;12394;42.692;23.314;2023-12-22T10:54:11;93331.75;;;12.51
24278;BMP280;12394;42.692;23.314;2023-12-22T10:56:37;93329.53;;;13.04
24278;BMP280;12394;42.692;23.314;2023-12-22T10:59:02;93317.44;;;13.24
24278;BMP280;12394;42.692;23.314;2023-12-22T11:01:30;93322.13;;;13.02
24278;BMP280;12394;42.692;23.314;2023-12-22T11:04:01;93330.91;;;12.54
24278;BMP280;12394;42.692;23.314;2023-12-22T11:06:29;93326.00;;;11.97
24278;BMP280;12394;42.692;23.314;2023-12-22T11:08:57;93308.97;;;11.53
24278;BMP280;12394;42.692;23.314;2023-12-22T11:11:28;93315.38;;;11.21
24278;BMP280;12394;42.692;23.314;2023-12-22T11:13:59;93289.97;;;11.09
24278;BMP280;12394;42.692;23.314;2023-12-22T11:16:27;93285.56;;;10.97
24278;BMP280;12394;42.692;23.314;2023-12-22T11:18:54;93275.56;;;11.04
24278;BMP280;12394;42.692;23.314;2023-12-22T11:21:24;93276.06;;;11.12
24278;BMP280;12394;42.692;23.314;2023-12-22T11:23:51;93252.25;;;10.88
24278;BMP280;12394;42.692;23.314;2023-12-22T11:26:18;93262.84;;;11.15
24278;BMP280;12394;42.692;23.314;2023-12-22T11:28:48;93237.38;;;11.07
24278;BMP280;12394;42.692;23.314;2023-12-22T11:31:14;93271.53;;;11.43
24278;BMP280;12394;42.692;23.314;2023-12-22T11:33:44;93277.63;;;11.40
24278;BMP280;12394;42.692;23.314;2023-12-22T11:36:11;93302.28;;;11.21
24278;BMP280;12394;42.692;23.314;2023-12-22T11:38:37;93294.03;;;10.57
24278;BMP280;12394;42.692;23.314;2023-12-22T11:41:04;93305.78;;;10.53
24278;BMP280;12394;42.692;23.314;2023-12-22T11:43:31;93321.72;;;10.33
24278;BMP280;12394;42.692;23.314;2023-12-22T11:46:02;93314.22;;;10.10
24278;BMP280;12394;42.692;23.314;2023-12-22T11:48:28;93324.06;;;10.06
24278;BMP280;12394;42.692;23.314;2023-12-22T11:50:54;93323.50;;;9.76
24278;BMP280;12394;42.692;23.314;2023-12-22T11:53:24;93335.28;;;9.68
24278;BMP280;12394;42.692;23.314;2023-12-22T11:56:01;93314.69;;;9.45
24278;BMP280;12394;42.692;23.314;2023-12-22T11:58:44;93320.34;;;9.44
24278;BMP280;12394;42.692;23.314;2023-12-22T12:01:17;93312.47;;;9.06
24278;BMP280;12394;42.692;23.314;2023-12-22T12:03:55;93330.34;;;9.20
24278;BMP280;12394;42.692;23.314;2023-12-22T12:08:52;93317.78;;;8.89
24278;BMP280;12394;42.692;23.314;2023-12-22T12:11:21;93323.78;;;8.74
24278;BMP280;12394;42.692;23.314;2023-12-22T12:13:48;93327.31;;;8.67
24278;BMP280;12394;42.692;23.314;2023-12-22T12:16:18;93327.09;;;8.62
24278;BMP280;12394;42.692;23.314;2023-12-22T12:18:44;93315.53;;;8.63
24278;BMP280;12394;42.692;23.314;2023-12-22T12:21:11;93310.31;;;8.63
24278;BMP280;12394;42.692;23.314;2023-12-22T12:23:37;93306.19;;;8.49
24278;BMP280;12394;42.692;23.314;2023-12-22T12:26:06;93291.69;;;8.48
24278;BMP280;12394;42.692;23.314;2023-12-22T12:28:33;93291.50;;;8.55
24278;BMP280;12394;42.692;23.314;2023-12-22T12:31:00;93287.09;;;8.39
24278;BMP280;12394;42.692;23.314;2023-12-22T12:33:27;93288.31;;;8.35
24278;BMP280;12394;42.692;23.314;2023-12-22T12:35:54;93264.72;;;8.10
24278;BMP280;12394;42.692;23.314;2023-12-22T12:38:23;93277.00;;;8.25
24278;BMP280;12394;42.692;23.314;2023-12-22T12:40:54;93268.56;;;8.05
24278;BMP280;12394;42.692;23.314;2023-12-22T12:43:22;93263.78;;;8.03
24278;BMP280;12394;42.692;23.314;2023-12-22T12:45:47;93231.06;;;8.02
24278;BMP280;12394;42.692;23.314;2023-12-22T12:48:15;93246.34;;;8.00
24278;BMP280;12394;42.692;23.314;2023-12-22T12:50:41;93255.81;;;7.94
24278;BMP280;12394;42.692;23.314;2023-12-22T12:53:07;93269.88;;;7.97
24278;BMP280;12394;42.692;23.314;2023-12-22T12:55:32;93271.44;;;7.94
24278;BMP280;12394;42.692;23.314;2023-12-22T12:57:58;93282.25;;;7.93
24278;BMP280;12394;42.692;23.314;2023-12-22T13:00:27;93286.91;;;7.85
24278;BMP280;12394;42.692;23.314;2023-12-22T13:02:54;93305.34;;;7.91
24278;BMP280;12394;42.692;23.314;2023-12-22T13:05:23;93306.56;;;7.86
24278;BMP280;12394;42.692;23.314;2023-12-22T13:07:49;93302.66;;;7.78
24278;BMP280;12394;42.692;23.314;2023-12-22T13:10:24;93306.25;;;7.84
24278;BMP280;12394;42.692;23.314;2023-12-22T13:12:51;93290.94;;;7.86
24278;BMP280;12394;42.692;23.314;2023-12-22T13:15:20;93287.06;;;7.78
24278;BMP280;12394;42.692;23.314;2023-12-22T13:17:47;93286.72;;;7.60
24278;BMP280;12394;42.692;23.314;2023-12-22T13:20:12;93316.25;;;7.70
24278;BMP280;12394;42.692;23.314;2023-12-22T13:22:38;93319.34;;;7.65
24278;BMP280;12394;42.692;23.314;2023-12-22T13:25:04;93332.91;;;7.56
24278;BMP280;12394;42.692;23.314;2023-12-22T13:27:30;93349.66;;;7.55
24278;BMP280;12394;42.692;23.314;2023-12-22T13:29:55;93351.59;;;7.51
24278;BMP280;12394;42.692;23.314;2023-12-22T13:32:22;93358.50;;;7.41
24278;BMP280;12394;42.692;23.314;2023-12-22T13:34:54;93370.44;;;7.39
24278;BMP280;12394;42.692;23.314;2023-12-22T13:37:20;93375.97;;;7.41
24278;BMP280;12394;42.692;23.314;2023-12-22T13:39:46;93381.59;;;7.39
24278;BMP280;12394;42.692;23.314;2023-12-22T13:42:17;93376.19;;;7.30
24278;BMP280;12394;42.692;23.314;2023-12-22T13:44:48;93387.59;;;7.36
24278;BMP280;12394;42.692;23.314;2023-12-22T13:47:18;93387.84;;;7.42
24278;BMP280;12394;42.692;23.314;2023-12-22T13:49:47;93391.09;;;7.46
24278;BMP280;12394;42.692;23.314;2023-12-22T13:52:29;93398.50;;;7.47
24278;BMP280;12394;42.692;23.314;2023-12-22T13:55:00;93395.81;;;7.35
24278;BMP280;12394;42.692;23.314;2023-12-22T13:57:27;93403.06;;;7.43
24278;BMP280;12394;42.692;23.314;2023-12-22T13:59:53;93420.06;;;7.48
24278;BMP280;12394;42.692;23.314;2023-12-22T14:02:24;93419.13;;;7.38
24278;BMP280;12394;42.692;23.314;2023-12-22T14:04:50;93442.41;;;7.45
24278;BMP280;12394;42.692;23.314;2023-12-22T14:07:16;93444.88;;;7.52
24278;BMP280;12394;42.692;23.314;2023-12-22T14:09:42;93440.34;;;7.56